Time;durP1;ratioP1;P1;durP2;ratioP2;P2;SDS_P1;SDS_P2;PMS_P1;PMS_P2;Temp;Humidity;BMP_temperature;BMP_pressure;BME280_temperature;BME280_humidity;BME280_pressure;Samples;Min_cycle;Max_cycle;Signal;HPM_P1;HPM_P2
2024/02/03 00:00:34;;;;;;;24.00;14.30;;;;;;;4.46;97.35;99434.21;101746;1270;139058;-73
2024/02/03 00:03:21;;;;;;;23.70;13.80;;;;;;;4.47;97.50;99429.55;101949;1270;113477;-73
2024/02/03 00:05:48;;;;;;;23.80;14.60;;;;;;;4.47;97.40;99427.48;101740;1273;138697;-72
2024/02/03 00:08:15;;;;;;;22.50;12.70;;;;;;;4.48;97.55;99424.02;101810;1273;97911;-74
2024/02/03 00:10:41;;;;;;;22.90;13.60;;;;;;;4.48;97.37;99424.36;101855;1274;107237;-73
2024/02/03 00:13:09;;;;;;;25.00;13.50;;;;;;;4.50;97.70;99413.67;101789;1270;138824;-72
2024/02/03 00:15:36;;;;;;;24.00;13.20;;;;;;;4.51;97.64;99419.49;101882;1270;111420;-72
2024/02/03 00:18:02;;;;;;;22.10;12.40;;;;;;;4.53;97.80;99420.66;101987;1270;138452;-72
2024/02/03 00:20:29;;;;;;;23.40;13.30;;;;;;;4.56;97.60;99418.71;102058;1273;97838;-73
2024/02/03 00:22:56;;;;;;;20.00;12.00;;;;;;;4.57;97.79;99410.08;101750;1271;138685;-72
2024/02/03 00:25:23;;;;;;;19.30;12.40;;;;;;;4.58;97.54;99413.31;101867;1273;97847;-73
2024/02/03 00:27:50;;;;;;;22.50;11.60;;;;;;;4.59;97.97;99406.92;101864;1276;111554;-72
2024/02/03 00:30:18;;;;;;;19.50;12.10;;;;;;;4.59;98.26;99391.95;101764;1270;138543;-73
2024/02/03 00:32:45;;;;;;;17.50;11.50;;;;;;;4.63;97.90;99399.77;101929;1274;97834;-73
2024/02/03 00:35:12;;;;;;;18.80;11.70;;;;;;;4.64;98.02;99395.61;101757;1273;138382;-71
2024/02/03 00:37:39;;;;;;;18.00;11.40;;;;;;;4.66;98.30;99396.96;101854;1270;96453;-72
2024/02/03 00:40:08;;;;;;;19.40;10.80;;;;;;;4.69;97.95;99404.13;101938;1270;110552;-72
2024/02/03 00:42:35;;;;;;;17.60;10.80;;;;;;;4.72;98.11;99409.41;103258;1270;138568;-71
2024/02/03 00:45:02;;;;;;;17.00;10.60;;;;;;;4.73;98.40;99413.16;102654;1273;98398;-72
2024/02/03 00:47:29;;;;;;;16.80;10.60;;;;;;;4.76;98.28;99407.59;101790;1274;138947;-73
2024/02/03 00:49:56;;;;;;;20.70;10.60;;;;;;;4.77;98.29;99401.70;101940;1269;97867;-71
2024/02/03 00:52:24;;;;;;;18.00;10.80;;;;;;;4.79;98.32;99393.05;101859;1270;110857;-72
2024/02/03 00:54:51;;;;;;;17.20;10.70;;;;;;;4.80;98.40;99382.68;101704;1273;139972;-72
2024/02/03 00:57:18;;;;;;;14.40;10.50;;;;;;;4.80;98.53;99378.38;101934;1270;98464;-72
2024/02/03 00:59:47;;;;;;;16.30;10.00;;;;;;;4.84;98.78;99377.27;101837;1270;138533;-73
2024/02/03 01:02:14;;;;;;;15.50;10.60;;;;;;;4.84;99.09;99381.40;101930;1270;97861;-72
2024/02/03 01:04:43;;;;;;;17.00;10.20;;;;;;;4.84;99.29;99373.83;101908;1273;111002;-72
2024/02/03 01:07:10;;;;;;;13.70;9.60;;;;;;;4.84;99.21;99369.88;101755;1273;140257;-72
2024/02/03 01:09:36;;;;;;;16.00;10.70;;;;;;;4.87;99.18;99364.29;101915;1270;97764;-73
2024/02/03 01:12:04;;;;;;;16.30;10.60;;;;;;;4.89;99.49;99362.35;101826;1270;138361;-72
2024/02/03 01:14:31;;;;;;;14.70;9.80;;;;;;;4.89;99.73;99365.64;101954;1273;97700;-72
2024/02/03 01:16:58;;;;;;;14.60;9.90;;;;;;;4.91;99.81;99374.36;101845;1269;138499;-72
2024/02/03 01:19:25;;;;;;;14.60;10.10;;;;;;;4.92;99.54;99365.73;101850;1270;108026;-72
2024/02/03 01:21:52;;;;;;;14.40;9.60;;;;;;;4.94;99.73;99362.74;101908;1270;97838;-73
2024/02/03 01:24:18;;;;;;;12.30;8.90;;;;;;;4.95;100.00;99362.03;101774;1270;138207;-73
2024/02/03 01:26:45;;;;;;;11.80;9.20;;;;;;;4.97;100.00;99361.11;101874;1270;97855;-72
2024/02/03 01:29:12;;;;;;;14.80;9.90;;;;;;;4.99;100.00;99360.73;101841;1270;139135;-72
2024/02/03 01:31:39;;;;;;;12.20;9.40;;;;;;;4.99;100.00;99359.86;101899;1270;108683;-72
2024/02/03 01:34:06;;;;;;;14.40;9.50;;;;;;;5.03;100.00;99357.38;101953;1270;97846;-73
2024/02/03 01:36:33;;;;;;;13.20;10.10;;;;;;;5.06;100.00;99361.96;101803;1270;138772;-71
2024/02/03 01:39:00;;;;;;;11.70;9.20;;;;;;;5.07;100.00;99357.97;101964;1270;98124;-72
2024/02/03 01:41:27;;;;;;;13.00;9.70;;;;;;;5.10;100.00;99363.23;100968;1274;1002691;-71
2024/02/03 01:43:53;;;;;;;14.00;9.40;;;;;;;5.10;100.00;99355.48;101942;1270;107201;-72
2024/02/03 01:46:21;;;;;;;11.90;9.30;;;;;;;5.14;100.00;99357.94;101979;1270;97945;-72
2024/02/03 01:48:48;;;;;;;12.10;9.50;;;;;;;5.15;100.00;99365.50;101797;1269;138669;-73
2024/02/03 01:51:17;;;;;;;11.40;9.70;;;;;;;5.18;100.00;99339.77;101948;1273;97806;-73
2024/02/03 01:53:46;;;;;;;13.50;9.80;;;;;;;5.20;100.00;99349.89;101868;1270;140467;-72
2024/02/03 01:56:13;;;;;;;13.50;9.90;;;;;;;5.22;100.00;99360.54;101902;1270;107133;-73
2024/02/03 01:58:40;;;;;;;12.20;9.40;;;;;;;5.23;100.00;99360.15;102002;1273;98376;-72
2024/02/03 02:01:08;;;;;;;12.70;9.70;;;;;;;5.26;100.00;99363.20;101807;1271;138793;-73
2024/02/03 02:03:35;;;;;;;13.00;9.50;;;;;;;5.28;100.00;99356.95;101935;1272;97743;-73
2024/02/03 02:06:03;;;;;;;13.80;9.80;;;;;;;5.31;100.00;99356.84;101764;1273;138697;-73
2024/02/03 02:08:37;;;;;;;14.30;10.70;;;;;;;5.33;100.00;99353.52;101917;1273;107443;-73
2024/02/03 02:11:04;;;;;;;13.20;9.80;;;;;;;5.35;100.00;99345.70;101799;1275;139865;-73
2024/02/03 02:13:31;;;;;;;13.70;9.60;;;;;;;5.36;100.00;99349.81;101962;1273;106556;-73
2024/02/03 02:15:58;;;;;;;12.40;9.80;;;;;;;5.36;100.00;99350.66;101928;1270;97713;-74
2024/02/03 02:18:26;;;;;;;12.70;9.50;;;;;;;5.38;100.00;99347.53;101780;1273;138351;-73
2024/02/03 02:20:53;;;;;;;14.20;10.10;;;;;;;5.39;100.00;99351.48;101891;1270;107113;-72
2024/02/03 02:23:19;;;;;;;11.50;10.00;;;;;;;5.42;100.00;99344.70;101039;1273;1002725;-72
2024/02/03 02:25:47;;;;;;;11.40;9.60;;;;;;;5.44;100.00;99341.34;102028;1270;107335;-72
2024/02/03 02:28:13;;;;;;;11.10;9.90;;;;;;;5.47;100.00;99345.58;101991;1270;97828;-73
2024/02/03 02:30:41;;;;;;;12.10;10.40;;;;;;;5.50;100.00;99349.83;101850;1270;138751;-71
2024/02/03 02:33:09;;;;;;;12.80;9.70;;;;;;;5.51;100.00;99345.13;102083;1273;107727;-72
2024/02/03 02:35:36;;;;;;;12.70;10.50;;;;;;;5.54;100.00;99346.45;102029;1270;139020;-71
2024/02/03 02:38:04;;;;;;;15.00;10.70;;;;;;;5.54;100.00;99337.96;102023;1273;108699;-71
2024/02/03 02:40:31;;;;;;;12.20;10.20;;;;;;;5.56;100.00;99328.80;102112;1270;97855;-71
2024/02/03 02:42:58;;;;;;;12.70;10.40;;;;;;;5.56;100.00;99315.02;102349;1269;138793;-73
2024/02/03 02:45:25;;;;;;;14.80;10.50;;;;;;;5.59;100.00;99314.93;101157;1270;1002715;-72
2024/02/03 02:47:51;;;;;;;17.50;10.70;;;;;;;5.60;100.00;99314.72;101850;1270;139847;-72
2024/02/03 02:50:19;;;;;;;11.80;10.00;;;;;;;5.61;100.00;99313.33;101970;1270;108023;-72
2024/02/03 02:52:46;;;;;;;12.70;10.10;;;;;;;5.62;100.00;99311.92;102000;1273;97855;-72
2024/02/03 02:55:13;;;;;;;11.20;9.70;;;;;;;5.62;100.00;99304.84;101922;1270;111215;-73
2024/02/03 02:57:40;;;;;;;12.10;9.90;;;;;;;5.63;100.00;99305.15;101976;1273;106848;-73
2024/02/03 03:00:11;;;;;;;14.60;9.70;;;;;;;5.65;100.00;99309.08;101857;1270;138589;-73
2024/02/03 03:02:38;;;;;;;11.60;10.10;;;;;;;5.66;100.00;99315.07;102416;1270;108015;-72
2024/02/03 03:05:07;;;;;;;11.10;9.90;;;;;;;5.67;100.00;99306.08;101720;1270;139036;-72
2024/02/03 03:07:34;;;;;;;10.70;9.40;;;;;;;5.68;100.00;99307.75;102572;1270;112040;-73
2024/02/03 03:10:01;;;;;;;11.00;9.40;;;;;;;5.68;100.00;99301.05;101908;1270;109800;-73
2024/02/03 03:12:28;;;;;;;11.70;9.50;;;;;;;5.71;100.00;99303.71;101807;1276;139069;-72
2024/02/03 03:14:55;;;;;;;10.80;9.40;;;;;;;5.72;100.00;99304.19;101975;1273;108857;-72
2024/02/03 03:17:22;;;;;;;13.20;9.50;;;;;;;5.74;100.00;99299.85;101832;1270;138752;-73
2024/02/03 03:19:49;;;;;;;10.50;9.10;;;;;;;5.75;100.00;99316.55;101942;1270;110510;-73
2024/02/03 03:22:17;;;;;;;10.80;9.50;;;;;;;5.77;100.00;99313.75;101936;1270;107406;-74
2024/02/03 03:24:44;;;;;;;11.80;9.60;;;;;;;5.78;100.00;99314.23;101840;1273;140126;-73
2024/02/03 03:27:11;;;;;;;10.50;8.90;;;;;;;5.79;100.00;99309.20;101904;1273;107468;-73
2024/02/03 03:29:38;;;;;;;11.10;8.50;;;;;;;5.81;100.00;99311.91;101837;1273;139101;-73
2024/02/03 03:32:07;;;;;;;9.40;8.50;;;;;;;5.82;100.00;99309.45;101979;1271;111400;-72
2024/02/03 03:34:34;;;;;;;12.30;8.20;;;;;;;5.82;100.00;99304.11;101941;1273;106636;-74
2024/02/03 03:37:01;;;;;;;9.60;8.00;;;;;;;5.85;100.00;99315.08;101840;1270;139000;-73
2024/02/03 03:39:28;;;;;;;8.70;7.90;;;;;;;5.84;100.00;99316.98;101915;1273;107690;-73
2024/02/03 03:41:54;;;;;;;9.70;8.20;;;;;;;5.85;100.00;99317.13;101847;1270;138224;-73
2024/02/03 03:44:21;;;;;;;10.40;7.70;;;;;;;5.87;100.00;99321.91;101994;1270;110170;-73
2024/02/03 03:46:49;;;;;;;9.80;7.90;;;;;;;5.89;100.00;99314.78;101859;1270;108817;-72
2024/02/03 03:49:16;;;;;;;8.30;7.50;;;;;;;5.89;100.00;99311.33;102010;1274;97863;-74
2024/02/03 03:51:43;;;;;;;9.40;7.70;;;;;;;5.89;100.00;99323.23;101269;1270;1002596;-74
2024/02/03 03:54:10;;;;;;;9.20;8.20;;;;;;;5.87;100.00;99307.59;101846;1270;138606;-72
2024/02/03 03:56:37;;;;;;;9.50;7.80;;;;;;;5.90;100.00;99320.30;101971;1270;111611;-72
2024/02/03 03:59:04;;;;;;;10.90;8.30;;;;;;;5.91;100.00;99313.19;101873;1271;139415;-72
2024/02/03 04:01:31;;;;;;;9.90;8.60;;;;;;;5.92;100.00;99306.27;101943;1270;97729;-72
2024/02/03 04:03:58;;;;;;;8.60;7.80;;;;;;;5.90;100.00;99297.36;101955;1270;107089;-73
2024/02/03 04:06:25;;;;;;;9.90;7.70;;;;;;;5.95;100.00;99308.30;101877;1270;138296;-73
2024/02/03 04:08:52;;;;;;;11.30;7.80;;;;;;;5.96;100.00;99303.59;101919;1270;111290;-73
2024/02/03 04:11:18;;;;;;;9.20;8.20;;;;;;;5.97;100.00;99303.38;101857;1270;138660;-73
2024/02/03 04:13:46;;;;;;;9.20;7.70;;;;;;;5.98;100.00;99297.30;102002;1270;97817;-72
2024/02/03 04:16:13;;;;;;;9.60;7.60;;;;;;;5.99;100.00;99294.02;101942;1271;108222;-72
2024/02/03 04:18:40;;;;;;;7.90;7.10;;;;;;;6.00;100.00;99299.15;101883;1270;139151;-73
2024/02/03 04:21:07;;;;;;;7.90;7.10;;;;;;;6.01;100.00;99304.98;101958;1273;111513;-73
2024/02/03 04:23:34;;;;;;;8.20;7.40;;;;;;;6.01;100.00;99305.85;101851;1269;138449;-73
2024/02/03 04:26:01;;;;;;;7.60;6.90;;;;;;;6.00;100.00;99299.33;101991;1270;97853;-73
2024/02/03 04:28:28;;;;;;;7.80;6.30;;;;;;;6.04;100.00;99308.86;101981;1270;108073;-74
2024/02/03 04:30:58;;;;;;;8.10;7.20;;;;;;;6.07;100.00;99305.33;101784;1270;138542;-73
2024/02/03 04:33:25;;;;;;;7.30;6.60;;;;;;;6.09;100.00;99314.95;102008;1270;111479;-72
2024/02/03 04:35:52;;;;;;;8.20;7.20;;;;;;;6.10;100.00;99314.40;101790;1270;138308;-73
2024/02/03 04:38:19;;;;;;;8.30;6.80;;;;;;;6.12;100.00;99304.36;101881;1270;97713;-72
2024/02/03 04:40:46;;;;;;;7.80;6.20;;;;;;;6.13;100.00;99308.27;101974;1270;107854;-72
2024/02/03 04:43:13;;;;;;;6.50;5.80;;;;;;;6.16;100.00;99312.50;101847;1270;138360;-72
2024/02/03 04:45:39;;;;;;;7.20;6.50;;;;;;;6.18;100.00;99311.91;101965;1270;111375;-73
2024/02/03 04:48:07;;;;;;;6.20;5.60;;;;;;;6.20;100.00;99306.02;101851;1270;138352;-73
2024/02/03 04:50:34;;;;;;;6.70;5.30;;;;;;;6.20;100.00;99302.88;101992;1273;98376;-73
2024/02/03 04:53:01;;;;;;;7.30;5.90;;;;;;;6.20;100.00;99299.60;101787;1270;138518;-73
2024/02/03 04:55:28;;;;;;;6.10;5.50;;;;;;;6.25;100.00;99290.29;101920;1270;98250;-73
2024/02/03 04:57:55;;;;;;;5.40;4.90;;;;;;;6.26;100.00;99289.23;101965;1270;112351;-73
2024/02/03 05:00:22;;;;;;;6.10;5.50;;;;;;;6.28;100.00;99292.80;101833;1270;138356;-73
2024/02/03 05:02:49;;;;;;;5.80;4.10;;;;;;;6.27;100.00;99295.60;101840;1273;98370;-74
2024/02/03 05:05:16;;;;;;;5.20;4.00;;;;;;;6.30;100.00;99292.39;101801;1269;142892;-72
2024/02/03 05:07:46;;;;;;;5.70;4.10;;;;;;;6.34;100.00;99292.96;101938;1270;97864;-73
2024/02/03 05:10:13;;;;;;;6.70;3.90;;;;;;;6.39;100.00;99300.06;101864;1270;110050;-74
2024/02/03 05:12:40;;;;;;;4.80;3.50;;;;;;;6.44;100.00;99288.17;101798;1270;138394;-74
2024/02/03 05:15:09;;;;;;;3.80;3.50;;;;;;;6.49;100.00;99291.47;101929;1270;98613;-73
2024/02/03 05:17:36;;;;;;;3.00;2.70;;;;;;;6.55;100.00;99287.83;101823;1270;138807;-73
2024/02/03 05:20:05;;;;;;;4.50;3.10;;;;;;;6.60;100.00;99282.84;101893;1270;97855;-74
2024/02/03 05:22:32;;;;;;;3.00;2.70;;;;;;;6.61;100.00;99284.52;101918;1273;111835;-74
2024/02/03 05:24:59;;;;;;;3.20;2.70;;;;;;;6.70;100.00;99283.75;101789;1273;138487;-72
2024/02/03 05:27:26;;;;;;;2.60;2.40;;;;;;;6.75;100.00;99274.61;101985;1273;98501;-72
2024/02/03 05:29:53;;;;;;;3.40;2.60;;;;;;;6.78;100.00;99283.11;102583;1270;139343;-71
2024/02/03 05:32:21;;;;;;;3.10;2.50;;;;;;;6.83;100.00;99292.83;103390;1270;96094;-71
2024/02/03 05:34:48;;;;;;;3.70;2.30;;;;;;;6.88;100.00;99301.65;102777;1270;111350;-73
2024/02/03 05:37:15;;;;;;;3.00;2.50;;;;;;;6.92;100.00;99305.50;101895;1270;107991;-73
2024/02/03 05:39:44;;;;;;;2.40;2.20;;;;;;;6.99;100.00;99295.59;101941;1270;98317;-73
2024/02/03 05:42:11;;;;;;;4.00;2.60;;;;;;;7.03;100.00;99297.70;101863;1273;138584;-73
2024/02/03 05:44:38;;;;;;;2.80;2.50;;;;;;;7.06;100.00;99300.55;101891;1270;97704;-71
2024/02/03 05:47:05;;;;;;;2.00;1.90;;;;;;;7.10;100.00;99306.80;101828;1275;141389;-73
2024/02/03 05:49:32;;;;;;;3.30;2.20;;;;;;;7.16;100.00;99324.05;101896;1270;108808;-73
2024/02/03 05:51:59;;;;;;;2.40;2.10;;;;;;;7.21;100.00;99326.14;102434;1270;96592;-72
2024/02/03 05:54:26;;;;;;;3.10;2.30;;;;;;;7.23;100.00;99312.75;102131;1272;138953;-73
2024/02/03 05:56:54;;;;;;;3.80;2.30;;;;;;;7.23;100.00;99310.15;101869;1270;97711;-73
2024/02/03 05:59:21;;;;;;;3.20;2.10;;;;;;;7.29;100.00;99316.89;101808;1270;139652;-72
2024/02/03 06:02:04;;;;;;;2.50;1.70;;;;;;;7.33;100.00;99317.78;102754;1274;108182;-71
2024/02/03 06:04:31;;;;;;;2.40;1.90;;;;;;;7.37;100.00;99319.58;102799;1270;97831;-76
2024/02/03 06:06:58;;;;;;;3.40;1.90;;;;;;;7.38;100.00;99320.56;101838;1270;138381;-73
2024/02/03 06:09:25;;;;;;;2.80;1.70;;;;;;;7.41;100.00;99325.80;101916;1273;97875;-73
2024/02/03 06:11:53;;;;;;;2.20;1.70;;;;;;;7.45;100.00;99328.45;101864;1270;137100;-74
2024/02/03 06:14:20;;;;;;;2.60;1.70;;;;;;;7.49;100.00;99330.05;101946;1273;107764;-73
2024/02/03 06:16:47;;;;;;;2.50;1.70;;;;;;;7.51;100.00;99322.88;102159;1270;96751;-73
2024/02/03 06:19:13;;;;;;;3.10;1.80;;;;;;;7.54;100.00;99323.98;101796;1271;138687;-72
2024/02/03 06:21:40;;;;;;;2.00;1.80;;;;;;;7.55;100.00;99326.05;101867;1275;97858;-72
2024/02/03 06:24:08;;;;;;;2.10;1.90;;;;;;;7.56;100.00;99326.02;102585;1270;138263;-72
2024/02/03 06:26:35;;;;;;;2.20;1.90;;;;;;;7.56;100.00;99325.15;103359;1270;107739;-72
2024/02/03 06:29:02;;;;;;;1.90;1.60;;;;;;;7.56;100.00;99320.47;102590;1269;139377;-73
2024/02/03 06:31:29;;;;;;;2.00;1.80;;;;;;;7.57;100.00;99326.99;103325;1270;107303;-73
2024/02/03 06:33:55;;;;;;;2.30;1.90;;;;;;;7.60;100.00;99329.67;102224;1271;97839;-73
2024/02/03 06:36:22;;;;;;;2.10;1.90;;;;;;;7.60;100.00;99337.63;101795;1275;138723;-73
2024/02/03 06:38:49;;;;;;;2.80;2.10;;;;;;;7.60;100.00;99331.04;103097;1270;108877;-72
2024/02/03 06:41:18;;;;;;;3.00;1.80;;;;;;;7.60;100.00;99333.13;103282;1273;138527;-73
2024/02/03 06:43:45;;;;;;;3.60;2.20;;;;;;;7.60;100.00;99341.63;103343;1270;107486;-73
2024/02/03 06:46:12;;;;;;;2.80;2.10;;;;;;;7.60;100.00;99348.36;103299;1270;95820;-72
2024/02/03 06:48:39;;;;;;;3.40;2.10;;;;;;;7.59;100.00;99345.80;102317;1270;138917;-73
2024/02/03 06:51:06;;;;;;;2.50;2.20;;;;;;;7.57;100.00;99347.06;102515;1270;105608;-73
2024/02/03 06:53:33;;;;;;;3.30;2.50;;;;;;;7.56;100.00;99354.88;103279;1270;138711;-72
2024/02/03 06:56:00;;;;;;;2.60;2.40;;;;;;;7.55;100.00;99357.51;103334;1270;108799;-74
2024/02/03 06:58:29;;;;;;;4.60;2.70;;;;;;;7.51;100.00;99356.58;103351;1273;96366;-72
2024/02/03 07:00:56;;;;;;;3.70;2.80;;;;;;;7.50;100.00;99365.13;103053;1270;138663;-74
2024/02/03 07:03:24;;;;;;;3.80;2.80;;;;;;;7.46;100.00;99360.40;101821;1273;109724;-73
2024/02/03 07:05:51;;;;;;;2.80;2.60;;;;;;;7.48;100.00;99359.65;102360;1270;138450;-73
2024/02/03 07:08:18;;;;;;;4.50;2.90;;;;;;;7.50;100.00;99360.11;103346;1270;108226;-73
2024/02/03 07:10:45;;;;;;;2.90;2.60;;;;;;;7.48;100.00;99360.86;103349;1273;96089;-73
2024/02/03 07:13:12;;;;;;;3.90;3.10;;;;;;;7.48;100.00;99359.83;103263;1270;138547;-75
2024/02/03 07:15:39;;;;;;;3.40;3.00;;;;;;;7.46;100.00;99359.73;102533;1275;107880;-72
2024/02/03 07:18:07;;;;;;;4.80;3.30;;;;;;;7.45;100.00;99362.54;101815;1275;138670;-73
2024/02/03 07:20:34;;;;;;;3.60;3.00;;;;;;;7.46;100.00;99372.52;103322;1273;107172;-75
2024/02/03 07:23:01;;;;;;;5.00;4.00;;;;;;;7.50;100.00;99370.14;103176;1269;139685;-74
2024/02/03 07:25:28;;;;;;;3.80;3.50;;;;;;;7.51;100.00;99364.39;102431;1273;110375;-74
2024/02/03 07:27:55;;;;;;;4.10;3.70;;;;;;;7.51;100.00;99363.69;101818;1270;107242;-75
2024/02/03 07:30:22;;;;;;;5.80;3.70;;;;;;;7.55;100.00;99365.33;101796;1271;138502;-75
2024/02/03 07:32:49;;;;;;;4.10;3.70;;;;;;;7.56;100.00;99378.44;101835;1273;107513;-75
2024/02/03 07:35:16;;;;;;;6.10;4.10;;;;;;;7.57;100.00;99384.44;101959;1269;139618;-74
2024/02/03 07:37:43;;;;;;;5.40;3.80;;;;;;;7.58;100.00;99385.45;101891;1270;110126;-74
2024/02/03 07:40:13;;;;;;;5.30;4.20;;;;;;;7.58;100.00;99385.44;102051;1270;108137;-74
2024/02/03 07:42:40;;;;;;;6.60;4.30;;;;;;;7.56;100.00;99390.52;102648;1270;138338;-75
2024/02/03 07:45:08;;;;;;;5.30;4.50;;;;;;;7.56;100.00;99391.91;102009;1273;107367;-74
2024/02/03 07:47:35;;;;;;;5.40;4.90;;;;;;;7.54;100.00;99378.48;101809;1275;138434;-75
2024/02/03 07:50:02;;;;;;;5.90;5.30;;;;;;;7.51;100.00;99374.26;102006;1270;110175;-76
2024/02/03 07:52:29;;;;;;;6.50;5.40;;;;;;;7.51;100.00;99380.13;101918;1274;107792;-75
2024/02/03 07:54:56;;;;;;;11.00;6.10;;;;;;;7.48;100.00;99367.45;101908;1275;139057;-74
2024/02/03 07:57:23;;;;;;;6.60;5.70;;;;;;;7.49;100.00;99374.30;101877;1276;107626;-76
2024/02/03 07:59:51;;;;;;;7.40;6.40;;;;;;;7.49;100.00;99376.89;101751;1270;138541;-77
2024/02/03 08:02:18;;;;;;;7.70;6.60;;;;;;;7.50;100.00;99370.13;101908;1270;110586;-77
2024/02/03 08:04:44;;;;;;;12.10;6.70;;;;;;;7.51;100.00;99372.52;102055;1270;107977;-75
2024/02/03 08:07:11;;;;;;;8.20;7.00;;;;;;;7.51;100.00;99369.90;102118;1270;140263;-75
2024/02/03 08:09:38;;;;;;;8.20;7.30;;;;;;;7.52;100.00;99372.82;102176;1270;107197;-77
2024/02/03 08:12:06;;;;;;;10.20;7.70;;;;;;;7.53;100.00;99375.73;102094;1270;138355;-79
2024/02/03 08:14:33;;;;;;;9.00;7.60;;;;;;;7.55;100.00;99368.95;102268;1270;111398;-76
2024/02/03 08:16:59;;;;;;;8.40;7.20;;;;;;;7.55;100.00;99373.79;102046;1273;138598;-77
2024/02/03 08:19:26;;;;;;;9.90;6.90;;;;;;;7.56;100.00;99380.50;102244;1275;97818;-77
2024/02/03 08:21:53;;;;;;;8.70;7.10;;;;;;;7.59;100.00;99374.33;102149;1270;107517;-77
2024/02/03 08:24:21;;;;;;;6.80;6.10;;;;;;;7.63;100.00;99382.34;101984;1270;139455;-75
2024/02/03 08:26:48;;;;;;;8.70;6.40;;;;;;;7.64;100.00;99375.55;102152;1270;111669;-75
2024/02/03 08:29:15;;;;;;;8.40;6.80;;;;;;;7.66;100.00;99379.46;102082;1275;139122;-75
2024/02/03 08:31:42;;;;;;;8.10;6.50;;;;;;;7.69;100.00;99378.84;101983;1270;97857;-75
2024/02/03 08:34:09;;;;;;;7.60;6.80;;;;;;;7.70;100.00;99368.39;102054;1270;106903;-76
2024/02/03 08:36:36;;;;;;;9.00;6.70;;;;;;;7.74;100.00;99379.54;101802;1276;139060;-74
2024/02/03 08:39:04;;;;;;;8.10;6.70;;;;;;;7.76;100.00;99386.57;102003;1270;110422;-84
2024/02/03 08:41:30;;;;;;;9.40;6.80;;;;;;;7.78;100.00;99384.92;101870;1274;138612;-81
2024/02/03 08:43:57;;;;;;;8.60;6.80;;;;;;;7.81;100.00;99387.92;102254;1270;97762;-80
2024/02/03 08:46:26;;;;;;;7.10;6.40;;;;;;;7.84;100.00;99383.32;101945;1275;107254;-80
2024/02/03 08:48:54;;;;;;;8.90;6.70;;;;;;;7.84;100.00;99386.08;101777;1276;138594;-79
2024/02/03 08:51:21;;;;;;;8.20;6.80;;;;;;;7.85;100.00;99381.20;102073;1269;111262;-82
2024/02/03 08:53:48;;;;;;;7.20;6.10;;;;;;;7.90;100.00;99394.56;101794;1270;139041;-82
2024/02/03 08:56:15;;;;;;;8.70;6.90;;;;;;;7.92;100.00;99397.08;102335;1270;97820;-83
2024/02/03 08:58:42;;;;;;;8.90;6.20;;;;;;;7.93;100.00;99392.90;102472;1273;108247;-83
2024/02/03 09:01:09;;;;;;;8.80;7.10;;;;;;;7.96;100.00;99388.47;102264;1273;138157;-83
2024/02/03 09:03:37;;;;;;;8.10;6.50;;;;;;;7.98;100.00;99388.05;102156;1272;110593;-76
2024/02/03 09:06:04;;;;;;;8.10;6.20;;;;;;;8.01;100.00;99390.34;102025;1274;138771;-76
2024/02/03 09:08:31;;;;;;;7.60;6.80;;;;;;;8.03;100.00;99389.60;102088;1273;97723;-77
2024/02/03 09:10:58;;;;;;;8.00;6.00;;;;;;;8.05;100.00;99391.59;102013;1273;138514;-78
2024/02/03 09:13:25;;;;;;;10.10;7.40;;;;;;;8.08;100.00;99394.61;102120;1273;97868;-79
2024/02/03 09:15:52;;;;;;;7.20;6.00;;;;;;;8.10;100.00;99387.27;102267;1273;110607;-78
2024/02/03 09:18:19;;;;;;;7.00;5.70;;;;;;;8.13;100.00;99381.80;102098;1274;138651;-79
2024/02/03 09:20:47;;;;;;;8.10;6.30;;;;;;;8.15;100.00;99383.77;102244;1270;97727;-78
2024/02/03 09:23:14;;;;;;;6.60;5.60;;;;;;;8.18;100.00;99382.78;102001;1274;138407;-78
2024/02/03 09:25:40;;;;;;;6.20;5.40;;;;;;;8.24;100.00;99378.98;102220;1275;97883;-79
2024/02/03 09:28:08;;;;;;;6.10;5.00;;;;;;;8.24;100.00;99361.64;102206;1274;110554;-78
2024/02/03 09:30:35;;;;;;;6.90;5.80;;;;;;;8.29;100.00;99369.42;102101;1273;138481;-79
2024/02/03 09:33:02;;;;;;;6.70;5.40;;;;;;;8.33;100.00;99366.52;102239;1273;99588;-79
2024/02/03 09:35:29;;;;;;;8.30;5.80;;;;;;;8.37;100.00;99368.47;102121;1274;138302;-80
2024/02/03 09:37:56;;;;;;;7.70;6.10;;;;;;;8.39;100.00;99364.40;102168;1275;98516;-78
2024/02/03 09:40:26;;;;;;;6.10;5.30;;;;;;;8.41;100.00;99372.27;102132;1270;111390;-78
2024/02/03 09:42:54;;;;;;;8.30;5.20;;;;;;;8.43;100.00;99367.02;101952;1273;138494;-78
2024/02/03 09:45:22;;;;;;;5.50;4.80;;;;;;;8.46;100.00;99357.05;102141;1275;99600;-80
2024/02/03 09:47:50;;;;;;;6.70;5.30;;;;;;;8.51;100.00;99360.70;102042;1276;138397;-80
2024/02/03 09:50:17;;;;;;;7.30;4.70;;;;;;;8.55;100.00;99362.42;101246;1276;1002751;-78
2024/02/03 09:52:45;;;;;;;6.60;4.90;;;;;;;8.61;100.00;99371.73;102101;1275;111444;-79
2024/02/03 09:55:12;;;;;;;6.40;5.00;;;;;;;8.67;100.00;99388.99;101894;1273;138407;-78
2024/02/03 09:57:40;;;;;;;6.50;4.90;;;;;;;8.68;99.96;99391.40;102202;1275;97844;-78
2024/02/03 10:00:11;;;;;;;6.70;5.50;;;;;;;8.68;99.84;99398.69;102142;1270;137730;-79
2024/02/03 10:02:39;;;;;;;7.40;6.20;;;;;;;8.67;99.92;99392.14;102471;1274;97752;-79
2024/02/03 10:05:08;;;;;;;7.50;6.30;;;;;;;8.69;99.71;99387.70;102133;1270;137522;-77
2024/02/03 10:07:35;;;;;;;7.20;6.00;;;;;;;8.65;99.62;99392.38;102184;1270;108732;-78
2024/02/03 10:10:09;;;;;;;7.00;5.60;;;;;;;8.63;99.84;99392.45;102286;1270;99632;-80
2024/02/03 10:12:39;;;;;;;7.80;6.70;;;;;;;8.65;99.60;99391.15;102131;1270;138033;-78
2024/02/03 10:15:08;;;;;;;7.00;6.20;;;;;;;8.65;99.67;99383.20;102391;1271;98021;-79
2024/02/03 10:17:35;;;;;;;7.20;5.90;;;;;;;8.66;99.60;99397.20;102177;1270;139391;-79
2024/02/03 10:20:05;;;;;;;6.40;5.50;;;;;;;8.69;99.75;99390.48;102228;1275;107328;-78
2024/02/03 10:22:36;;;;;;;7.90;5.70;;;;;;;8.72;99.78;99390.73;102228;1270;98232;-79
2024/02/03 10:25:10;;;;;;;6.80;6.00;;;;;;;8.75;99.64;99391.44;101948;1270;139475;-78
2024/02/03 10:27:40;;;;;;;8.10;6.20;;;;;;;8.78;99.55;99396.88;101889;1275;97718;-78
2024/02/03 10:30:10;;;;;;;6.30;5.30;;;;;;;8.80;99.42;99390.07;102137;1270;138105;-77
2024/02/03 10:32:37;;;;;;;7.20;5.80;;;;;;;8.84;99.45;99389.06;103188;1273;107737;-78
2024/02/03 10:35:05;;;;;;;6.30;5.30;;;;;;;8.90;99.27;99390.87;101986;1271;138501;-77
2024/02/03 10:37:32;;;;;;;8.20;5.50;;;;;;;8.96;99.03;99380.23;102036;1275;107546;-79
2024/02/03 10:40:00;;;;;;;8.20;6.00;;;;;;;9.03;98.90;99380.84;102088;1270;97699;-78
2024/02/03 10:42:31;;;;;;;7.50;6.20;;;;;;;9.07;98.45;99378.92;101978;1276;138774;-78
2024/02/03 10:45:04;;;;;;;9.80;5.60;;;;;;;9.06;98.30;99373.41;102100;1273;105754;-79
2024/02/03 10:47:32;;;;;;;7.30;5.30;;;;;;;9.11;98.17;99368.53;102286;1273;138408;-80
2024/02/03 10:50:00;;;;;;;6.20;4.60;;;;;;;9.18;97.95;99368.10;102048;1270;106849;-79
2024/02/03 10:52:30;;;;;;;5.30;4.40;;;;;;;9.24;97.81;99378.96;102211;1270;97718;-79
2024/02/03 10:55:00;;;;;;;5.30;4.60;;;;;;;9.26;97.50;99372.62;101967;1270;139524;-81
2024/02/03 10:57:27;;;;;;;5.70;4.40;;;;;;;9.33;97.32;99379.63;102032;1275;108619;-78
2024/02/03 11:00:04;;;;;;;5.40;4.40;;;;;;;9.37;97.18;99376.14;102125;1276;137192;-81
2024/02/03 11:02:31;;;;;;;4.90;4.20;;;;;;;9.39;96.65;99388.05;102233;1270;108223;-78
2024/02/03 11:04:58;;;;;;;5.50;4.30;;;;;;;9.38;96.76;99390.02;102106;1271;137755;-77
2024/02/03 11:07:29;;;;;;;6.30;4.50;;;;;;;9.38;96.48;99397.30;102079;1271;111022;-79
2024/02/03 11:09:57;;;;;;;4.90;3.90;;;;;;;9.38;96.33;99396.23;102259;1270;107524;-79
2024/02/03 11:12:32;;;;;;;4.20;3.70;;;;;;;9.42;95.98;99395.05;102107;1270;139003;-78
2024/02/03 11:15:00;;;;;;;5.10;3.60;;;;;;;9.48;96.00;99399.12;102148;1276;106433;-78
2024/02/03 11:17:33;;;;;;;6.20;3.50;;;;;;;9.52;95.72;99403.47;101981;1276;138646;-78